METAR Data
IDs: Format: Raw Decoded Include TAF

Data at: 1014 UTC 13 Aug 2022

EPKT 131000Z 04008KT 9999 SCT011 20/17 Q1016